sensor_id;sensor_type;location;lat;lon;timestamp;pressure;altitude;pressure_sealevel;temperature;humidity
36328;BME280;22354;50.012;8.264;2022-08-06T00:01:52;101330.22;;;17.84;100.00
36328;BME280;22354;50.012;8.264;2022-08-06T00:04:18;101333.47;;;17.79;100.00
36328;BME280;22354;50.012;8.264;2022-08-06T00:06:44;101339.63;;;17.73;100.00
36328;BME280;22354;50.012;8.264;2022-08-06T00:09:09;101334.72;;;17.68;100.00
36328;BME280;22354;50.012;8.264;2022-08-06T00:11:36;101341.13;;;17.67;100.00
36328;BME280;22354;50.012;8.264;2022-08-06T00:14:01;101340.09;;;17.77;100.00
36328;BME280;22354;50.012;8.264;2022-08-06T00:16:26;101348.09;;;17.70;100.00
36328;BME280;22354;50.012;8.264;2022-08-06T00:18:51;101347.56;;;17.75;100.00
36328;BME280;22354;50.012;8.264;2022-08-06T00:21:17;101352.34;;;17.73;100.00
36328;BME280;22354;50.012;8.264;2022-08-06T00:23:43;101347.94;;;17.94;100.00
36328;BME280;22354;50.012;8.264;2022-08-06T00:26:08;101352.78;;;18.07;100.00
36328;BME280;22354;50.012;8.264;2022-08-06T00:28:33;101354.47;;;18.08;100.00
36328;BME280;22354;50.012;8.264;2022-08-06T00:31:00;101356.06;;;18.25;100.00
36328;BME280;22354;50.012;8.264;2022-08-06T00:33:25;101368.78;;;18.25;100.00
36328;BME280;22354;50.012;8.264;2022-08-06T00:35:50;101367.94;;;18.24;100.00
36328;BME280;22354;50.012;8.264;2022-08-06T00:38:16;101375.47;;;18.14;100.00
36328;BME280;22354;50.012;8.264;2022-08-06T00:40:41;101374.31;;;18.32;100.00
36328;BME280;22354;50.012;8.264;2022-08-06T00:43:07;101385.59;;;18.43;100.00
36328;BME280;22354;50.012;8.264;2022-08-06T00:45:33;101375.72;;;18.50;100.00
36328;BME280;22354;50.012;8.264;2022-08-06T00:47:59;101372.56;;;18.39;100.00
36328;BME280;22354;50.012;8.264;2022-08-06T00:50:25;101380.16;;;18.20;100.00
36328;BME280;22354;50.012;8.264;2022-08-06T00:52:51;101391.00;;;18.20;100.00
36328;BME280;22354;50.012;8.264;2022-08-06T00:55:16;101386.16;;;18.08;100.00
36328;BME280;22354;50.012;8.264;2022-08-06T00:57:42;101389.31;;;18.19;100.00
36328;BME280;22354;50.012;8.264;2022-08-06T01:00:07;101390.53;;;18.40;100.00
36328;BME280;22354;50.012;8.264;2022-08-06T01:02:33;101395.16;;;18.08;100.00
36328;BME280;22354;50.012;8.264;2022-08-06T01:04:59;101405.06;;;17.93;100.00
36328;BME280;22354;50.012;8.264;2022-08-06T01:07:24;101414.00;;;18.02;100.00
36328;BME280;22354;50.012;8.264;2022-08-06T01:09:49;101407.00;;;17.68;100.00
36328;BME280;22354;50.012;8.264;2022-08-06T01:12:15;101410.38;;;17.31;100.00
36328;BME280;22354;50.012;8.264;2022-08-06T01:14:41;101417.50;;;17.32;100.00
36328;BME280;22354;50.012;8.264;2022-08-06T01:17:33;101414.09;;;17.30;100.00
36328;BME280;22354;50.012;8.264;2022-08-06T01:20:16;101419.69;;;17.28;100.00
36328;BME280;22354;50.012;8.264;2022-08-06T01:23:13;101419.72;;;17.20;100.00
36328;BME280;22354;50.012;8.264;2022-08-06T01:31:21;101408.13;;;17.43;100.00
36328;BME280;22354;50.012;8.264;2022-08-06T01:33:52;101415.41;;;17.50;100.00
36328;BME280;22354;50.012;8.264;2022-08-06T01:36:22;101419.84;;;17.35;100.00
36328;BME280;22354;50.012;8.264;2022-08-06T01:38:51;101420.50;;;17.37;100.00
36328;BME280;22354;50.012;8.264;2022-08-06T01:41:20;101421.19;;;17.39;100.00
36328;BME280;22354;50.012;8.264;2022-08-06T01:44:07;101424.78;;;17.23;100.00
36328;BME280;22354;50.012;8.264;2022-08-06T01:46:36;101426.19;;;16.87;100.00
36328;BME280;22354;50.012;8.264;2022-08-06T01:49:02;101438.03;;;16.86;100.00
36328;BME280;22354;50.012;8.264;2022-08-06T01:51:30;101434.78;;;16.58;100.00
36328;BME280;22354;50.012;8.264;2022-08-06T01:53:56;101440.69;;;16.61;100.00
36328;BME280;22354;50.012;8.264;2022-08-06T01:56:23;101442.56;;;16.44;100.00
36328;BME280;22354;50.012;8.264;2022-08-06T01:58:50;101438.09;;;16.27;100.00
36328;BME280;22354;50.012;8.264;2022-08-06T02:01:17;101434.91;;;16.15;100.00
36328;BME280;22354;50.012;8.264;2022-08-06T02:03:46;101440.66;;;16.37;100.00
36328;BME280;22354;50.012;8.264;2022-08-06T02:06:21;101448.63;;;16.30;100.00
36328;BME280;22354;50.012;8.264;2022-08-06T02:08:49;101446.91;;;16.29;100.00
36328;BME280;22354;50.012;8.264;2022-08-06T02:11:16;101444.38;;;16.28;100.00
36328;BME280;22354;50.012;8.264;2022-08-06T02:13:43;101440.63;;;16.20;100.00
36328;BME280;22354;50.012;8.264;2022-08-06T02:16:11;101444.91;;;16.31;100.00
36328;BME280;22354;50.012;8.264;2022-08-06T02:18:40;101453.69;;;16.33;100.00
36328;BME280;22354;50.012;8.264;2022-08-06T02:21:09;101456.19;;;16.27;100.00
36328;BME280;22354;50.012;8.264;2022-08-06T02:23:35;101452.69;;;16.50;100.00
36328;BME280;22354;50.012;8.264;2022-08-06T02:26:02;101461.53;;;16.69;100.00
36328;BME280;22354;50.012;8.264;2022-08-06T02:28:29;101461.88;;;16.74;100.00
36328;BME280;22354;50.012;8.264;2022-08-06T02:30:56;101461.50;;;16.61;100.00
36328;BME280;22354;50.012;8.264;2022-08-06T02:33:22;101465.03;;;16.61;100.00
36328;BME280;22354;50.012;8.264;2022-08-06T02:36:01;101466.97;;;16.85;100.00
36328;BME280;22354;50.012;8.264;2022-08-06T02:38:33;101467.81;;;16.86;100.00
36328;BME280;22354;50.012;8.264;2022-08-06T02:41:05;101467.13;;;16.67;100.00
36328;BME280;22354;50.012;8.264;2022-08-06T02:43:37;101473.38;;;16.76;100.00
36328;BME280;22354;50.012;8.264;2022-08-06T02:46:13;101473.50;;;16.58;100.00
36328;BME280;22354;50.012;8.264;2022-08-06T02:48:50;101473.66;;;16.48;100.00
36328;BME280;22354;50.012;8.264;2022-08-06T02:51:48;101476.19;;;16.66;100.00
36328;BME280;22354;50.012;8.264;2022-08-06T02:54:22;101466.41;;;16.57;100.00
36328;BME280;22354;50.012;8.264;2022-08-06T02:56:51;101463.88;;;16.56;100.00
36328;BME280;22354;50.012;8.264;2022-08-06T02:59:21;101468.63;;;16.78;100.00
36328;BME280;22354;50.012;8.264;2022-08-06T03:01:52;101472.72;;;16.82;100.00
36328;BME280;22354;50.012;8.264;2022-08-06T03:04:21;101479.91;;;16.65;100.00
36328;BME280;22354;50.012;8.264;2022-08-06T03:06:48;101477.25;;;16.73;100.00
36328;BME280;22354;50.012;8.264;2022-08-06T03:09:15;101475.91;;;16.77;100.00
36328;BME280;22354;50.012;8.264;2022-08-06T03:11:42;101479.81;;;16.75;100.00
36328;BME280;22354;50.012;8.264;2022-08-06T03:14:09;101482.19;;;16.86;100.00
36328;BME280;22354;50.012;8.264;2022-08-06T03:16:37;101486.91;;;16.76;100.00
36328;BME280;22354;50.012;8.264;2022-08-06T03:19:04;101482.50;;;16.91;100.00
36328;BME280;22354;50.012;8.264;2022-08-06T03:21:32;101483.47;;;16.58;100.00
36328;BME280;22354;50.012;8.264;2022-08-06T03:23:58;101482.09;;;16.53;100.00
36328;BME280;22354;50.012;8.264;2022-08-06T03:26:26;101489.88;;;16.48;100.00
36328;BME280;22354;50.012;8.264;2022-08-06T03:28:53;101499.38;;;16.61;100.00
36328;BME280;22354;50.012;8.264;2022-08-06T03:31:19;101495.53;;;16.88;100.00
36328;BME280;22354;50.012;8.264;2022-08-06T03:33:46;101490.31;;;16.94;100.00
36328;BME280;22354;50.012;8.264;2022-08-06T03:36:12;101492.25;;;16.51;100.00
36328;BME280;22354;50.012;8.264;2022-08-06T03:38:45;101491.53;;;16.33;100.00
36328;BME280;22354;50.012;8.264;2022-08-06T03:41:13;101493.94;;;16.44;100.00
36328;BME280;22354;50.012;8.264;2022-08-06T03:43:38;101491.41;;;16.43;100.00
36328;BME280;22354;50.012;8.264;2022-08-06T03:46:05;101497.28;;;16.30;100.00
36328;BME280;22354;50.012;8.264;2022-08-06T03:48:39;101499.25;;;16.12;100.00
36328;BME280;22354;50.012;8.264;2022-08-06T03:51:13;101504.38;;;16.31;100.00
36328;BME280;22354;50.012;8.264;2022-08-06T03:53:41;101497.91;;;16.16;100.00
36328;BME280;22354;50.012;8.264;2022-08-06T03:56:09;101510.31;;;16.35;100.00
36328;BME280;22354;50.012;8.264;2022-08-06T03:58:37;101510.06;;;16.12;100.00
36328;BME280;22354;50.012;8.264;2022-08-06T04:01:09;101508.09;;;16.38;100.00
36328;BME280;22354;50.012;8.264;2022-08-06T04:03:36;101505.66;;;16.11;100.00
36328;BME280;22354;50.012;8.264;2022-08-06T04:06:03;101504.81;;;16.02;100.00
36328;BME280;22354;50.012;8.264;2022-08-06T04:08:29;101511.91;;;16.11;100.00
36328;BME280;22354;50.012;8.264;2022-08-06T04:10:56;101509.94;;;15.87;100.00
36328;BME280;22354;50.012;8.264;2022-08-06T04:13:23;101510.09;;;15.86;100.00
36328;BME280;22354;50.012;8.264;2022-08-06T04:15:50;101512.66;;;15.87;100.00
36328;BME280;22354;50.012;8.264;2022-08-06T04:18:20;101509.03;;;16.13;100.00
36328;BME280;22354;50.012;8.264;2022-08-06T04:20:48;101496.19;;;16.07;100.00
36328;BME280;22354;50.012;8.264;2022-08-06T04:23:14;101506.84;;;16.08;100.00
36328;BME280;22354;50.012;8.264;2022-08-06T04:25:42;101508.88;;;16.14;100.00
36328;BME280;22354;50.012;8.264;2022-08-06T04:28:09;101512.97;;;15.84;100.00
36328;BME280;22354;50.012;8.264;2022-08-06T04:30:36;101523.50;;;15.96;100.00
36328;BME280;22354;50.012;8.264;2022-08-06T04:33:04;101513.75;;;16.03;100.00
36328;BME280;22354;50.012;8.264;2022-08-06T04:35:30;101522.16;;;16.00;100.00
36328;BME280;22354;50.012;8.264;2022-08-06T04:37:57;101527.97;;;16.13;100.00
36328;BME280;22354;50.012;8.264;2022-08-06T04:40:23;101530.88;;;15.85;100.00
36328;BME280;22354;50.012;8.264;2022-08-06T04:42:50;101534.38;;;16.04;100.00
36328;BME280;22354;50.012;8.264;2022-08-06T04:45:16;101535.50;;;15.93;100.00
36328;BME280;22354;50.012;8.264;2022-08-06T04:47:42;101538.75;;;16.05;100.00
36328;BME280;22354;50.012;8.264;2022-08-06T04:50:10;101538.31;;;15.83;100.00
36328;BME280;22354;50.012;8.264;2022-08-06T04:52:36;101537.72;;;15.72;100.00
36328;BME280;22354;50.012;8.264;2022-08-06T04:55:01;101544.72;;;15.82;100.00
36328;BME280;22354;50.012;8.264;2022-08-06T04:57:26;101543.09;;;15.89;100.00
36328;BME280;22354;50.012;8.264;2022-08-06T04:59:51;101548.50;;;15.89;100.00
36328;BME280;22354;50.012;8.264;2022-08-06T05:02:17;101546.81;;;15.97;100.00
36328;BME280;22354;50.012;8.264;2022-08-06T05:04:42;101551.59;;;16.03;100.00
36328;BME280;22354;50.012;8.264;2022-08-06T05:07:19;101551.59;;;16.03;100.00
36328;BME280;22354;50.012;8.264;2022-08-06T05:09:45;101547.91;;;16.12;100.00
36328;BME280;22354;50.012;8.264;2022-08-06T05:12:19;101556.16;;;16.10;100.00
36328;BME280;22354;50.012;8.264;2022-08-06T05:17:17;101557.53;;;16.65;100.00
36328;BME280;22354;50.012;8.264;2022-08-06T05:19:49;101561.91;;;16.41;100.00
36328;BME280;22354;50.012;8.264;2022-08-06T05:22:16;101558.88;;;16.61;100.00
36328;BME280;22354;50.012;8.264;2022-08-06T05:24:42;101561.91;;;16.49;100.00
36328;BME280;22354;50.012;8.264;2022-08-06T05:27:11;101559.56;;;16.63;100.00
36328;BME280;22354;50.012;8.264;2022-08-06T05:29:39;101563.34;;;16.78;100.00
36328;BME280;22354;50.012;8.264;2022-08-06T05:32:05;101564.31;;;16.61;100.00
36328;BME280;22354;50.012;8.264;2022-08-06T05:34:30;101571.03;;;17.07;100.00
36328;BME280;22354;50.012;8.264;2022-08-06T05:36:55;101568.69;;;16.62;100.00
36328;BME280;22354;50.012;8.264;2022-08-06T05:39:21;101572.69;;;16.84;100.00
36328;BME280;22354;50.012;8.264;2022-08-06T05:41:48;101566.94;;;16.87;100.00
36328;BME280;22354;50.012;8.264;2022-08-06T05:44:13;101571.88;;;17.07;100.00
36328;BME280;22354;50.012;8.264;2022-08-06T05:47:02;101567.28;;;17.24;100.00
36328;BME280;22354;50.012;8.264;2022-08-06T05:49:49;101578.63;;;17.28;100.00
36328;BME280;22354;50.012;8.264;2022-08-06T05:52:28;101580.84;;;17.32;100.00
36328;BME280;22354;50.012;8.264;2022-08-06T05:57:42;101582.16;;;16.88;100.00
36328;BME280;22354;50.012;8.264;2022-08-06T06:00:15;101585.03;;;16.86;100.00
36328;BME280;22354;50.012;8.264;2022-08-06T06:02:44;101587.72;;;16.86;100.00
36328;BME280;22354;50.012;8.264;2022-08-06T06:05:10;101589.75;;;16.92;100.00
36328;BME280;22354;50.012;8.264;2022-08-06T06:07:36;101583.84;;;16.89;100.00
36328;BME280;22354;50.012;8.264;2022-08-06T06:10:04;101588.06;;;16.91;100.00
36328;BME280;22354;50.012;8.264;2022-08-06T06:12:31;101584.91;;;17.28;100.00
36328;BME280;22354;50.012;8.264;2022-08-06T06:14:57;101602.16;;;17.52;100.00
36328;BME280;22354;50.012;8.264;2022-08-06T06:17:48;101599.28;;;17.69;100.00
36328;BME280;22354;50.012;8.264;2022-08-06T06:20:20;101600.22;;;18.09;100.00
36328;BME280;22354;50.012;8.264;2022-08-06T06:23:05;101600.25;;;17.93;100.00
36328;BME280;22354;50.012;8.264;2022-08-06T06:25:37;101604.66;;;17.94;100.00
36328;BME280;22354;50.012;8.264;2022-08-06T06:28:13;101604.03;;;17.76;100.00
36328;BME280;22354;50.012;8.264;2022-08-06T06:33:26;101623.28;;;18.05;100.00
36328;BME280;22354;50.012;8.264;2022-08-06T06:35:56;101614.94;;;18.23;100.00
36328;BME280;22354;50.012;8.264;2022-08-06T06:38:34;101612.94;;;18.09;100.00
36328;BME280;22354;50.012;8.264;2022-08-06T06:41:15;101611.16;;;17.77;100.00
36328;BME280;22354;50.012;8.264;2022-08-06T06:44:00;101621.41;;;18.06;100.00
36328;BME280;22354;50.012;8.264;2022-08-06T06:46:36;101622.31;;;17.90;100.00
36328;BME280;22354;50.012;8.264;2022-08-06T06:49:09;101617.41;;;17.77;100.00
36328;BME280;22354;50.012;8.264;2022-08-06T06:51:50;101624.31;;;17.96;100.00
36328;BME280;22354;50.012;8.264;2022-08-06T06:54:22;101617.06;;;17.80;100.00
36328;BME280;22354;50.012;8.264;2022-08-06T06:56:50;101619.94;;;17.71;100.00
36328;BME280;22354;50.012;8.264;2022-08-06T06:59:21;101623.16;;;17.90;100.00
36328;BME280;22354;50.012;8.264;2022-08-06T07:01:49;101615.56;;;17.78;100.00
36328;BME280;22354;50.012;8.264;2022-08-06T07:04:17;101614.63;;;18.10;100.00
36328;BME280;22354;50.012;8.264;2022-08-06T07:06:44;101623.28;;;18.05;100.00
36328;BME280;22354;50.012;8.264;2022-08-06T07:09:17;101627.38;;;18.48;100.00
36328;BME280;22354;50.012;8.264;2022-08-06T07:11:44;101627.84;;;18.68;100.00
36328;BME280;22354;50.012;8.264;2022-08-06T07:14:10;101622.81;;;19.11;100.00
36328;BME280;22354;50.012;8.264;2022-08-06T07:16:36;101620.00;;;18.73;100.00
36328;BME280;22354;50.012;8.264;2022-08-06T07:19:04;101626.72;;;18.46;100.00
36328;BME280;22354;50.012;8.264;2022-08-06T07:21:31;101631.34;;;18.38;100.00
36328;BME280;22354;50.012;8.264;2022-08-06T07:23:57;101622.25;;;18.06;100.00
36328;BME280;22354;50.012;8.264;2022-08-06T07:26:23;101618.16;;;18.18;100.00
36328;BME280;22354;50.012;8.264;2022-08-06T07:28:51;101629.03;;;18.57;100.00
36328;BME280;22354;50.012;8.264;2022-08-06T07:31:18;101633.00;;;18.86;100.00
36328;BME280;22354;50.012;8.264;2022-08-06T07:33:44;101631.31;;;18.85;100.00
36328;BME280;22354;50.012;8.264;2022-08-06T07:36:15;101635.03;;;18.45;100.00
36328;BME280;22354;50.012;8.264;2022-08-06T07:38:41;101631.84;;;18.80;100.00
36328;BME280;22354;50.012;8.264;2022-08-06T07:41:09;101639.13;;;19.11;100.00
36328;BME280;22354;50.012;8.264;2022-08-06T07:43:54;101639.25;;;18.86;100.00
36328;BME280;22354;50.012;8.264;2022-08-06T07:46:25;101633.31;;;18.91;100.00
36328;BME280;22354;50.012;8.264;2022-08-06T07:48:55;101636.25;;;18.81;100.00
36328;BME280;22354;50.012;8.264;2022-08-06T07:51:23;101626.91;;;18.84;100.00
36328;BME280;22354;50.012;8.264;2022-08-06T07:53:51;101631.19;;;18.78;100.00
36328;BME280;22354;50.012;8.264;2022-08-06T07:56:18;101640.56;;;18.99;100.00
36328;BME280;22354;50.012;8.264;2022-08-06T07:58:44;101628.59;;;18.85;100.00
36328;BME280;22354;50.012;8.264;2022-08-06T08:01:11;101634.59;;;18.72;100.00
36328;BME280;22354;50.012;8.264;2022-08-06T08:03:36;101641.41;;;18.60;100.00
36328;BME280;22354;50.012;8.264;2022-08-06T08:06:21;101636.50;;;18.95;100.00
36328;BME280;22354;50.012;8.264;2022-08-06T08:08:54;101628.94;;;19.59;100.00
36328;BME280;22354;50.012;8.264;2022-08-06T08:11:21;101631.13;;;19.78;100.00
36328;BME280;22354;50.012;8.264;2022-08-06T08:13:50;101631.94;;;20.01;100.00
36328;BME280;22354;50.012;8.264;2022-08-06T08:16:17;101638.78;;;19.60;100.00
36328;BME280;22354;50.012;8.264;2022-08-06T08:18:43;101635.72;;;18.86;100.00
36328;BME280;22354;50.012;8.264;2022-08-06T08:21:09;101634.56;;;18.80;100.00
36328;BME280;22354;50.012;8.264;2022-08-06T08:23:36;101643.69;;;19.41;100.00
36328;BME280;22354;50.012;8.264;2022-08-06T08:26:03;101636.78;;;19.08;100.00
36328;BME280;22354;50.012;8.264;2022-08-06T08:28:28;101634.19;;;18.83;100.00
36328;BME280;22354;50.012;8.264;2022-08-06T08:30:56;101635.88;;;19.15;100.00
36328;BME280;22354;50.012;8.264;2022-08-06T08:33:24;101624.16;;;19.61;100.00
36328;BME280;22354;50.012;8.264;2022-08-06T08:35:50;101629.09;;;19.80;100.00
36328;BME280;22354;50.012;8.264;2022-08-06T08:38:16;101630.63;;;20.56;100.00
36328;BME280;22354;50.012;8.264;2022-08-06T08:40:43;101632.63;;;20.48;100.00
36328;BME280;22354;50.012;8.264;2022-08-06T08:43:12;101627.97;;;19.89;100.00
36328;BME280;22354;50.012;8.264;2022-08-06T08:45:42;101628.88;;;19.67;100.00
36328;BME280;22354;50.012;8.264;2022-08-06T08:48:10;101627.84;;;19.68;100.00
36328;BME280;22354;50.012;8.264;2022-08-06T08:50:36;101633.75;;;19.49;100.00
36328;BME280;22354;50.012;8.264;2022-08-06T08:53:13;101627.84;;;19.45;100.00
36328;BME280;22354;50.012;8.264;2022-08-06T08:55:40;101619.56;;;20.14;100.00
36328;BME280;22354;50.012;8.264;2022-08-06T08:58:06;101620.19;;;21.11;100.00
36328;BME280;22354;50.012;8.264;2022-08-06T09:00:31;101606.97;;;21.51;100.00
36328;BME280;22354;50.012;8.264;2022-08-06T09:02:57;101608.56;;;21.45;100.00
36328;BME280;22354;50.012;8.264;2022-08-06T09:05:23;101610.63;;;21.92;100.00
36328;BME280;22354;50.012;8.264;2022-08-06T09:07:50;101606.38;;;22.11;100.00
36328;BME280;22354;50.012;8.264;2022-08-06T09:10:16;101620.31;;;21.67;100.00
36328;BME280;22354;50.012;8.264;2022-08-06T09:12:41;101615.53;;;20.10;100.00
36328;BME280;22354;50.012;8.264;2022-08-06T09:15:08;101624.81;;;20.59;100.00
36328;BME280;22354;50.012;8.264;2022-08-06T09:17:33;101625.28;;;20.99;100.00
36328;BME280;22354;50.012;8.264;2022-08-06T09:19:59;101621.78;;;20.84;100.00
36328;BME280;22354;50.012;8.264;2022-08-06T09:22:24;101628.19;;;21.34;100.00
36328;BME280;22354;50.012;8.264;2022-08-06T09:24:49;101630.94;;;20.47;100.00
36328;BME280;22354;50.012;8.264;2022-08-06T09:27:16;101619.56;;;20.14;100.00
36328;BME280;22354;50.012;8.264;2022-08-06T09:29:50;101621.81;;;20.25;100.00
36328;BME280;22354;50.012;8.264;2022-08-06T09:32:53;101624.16;;;20.13;100.00
36328;BME280;22354;50.012;8.264;2022-08-06T09:35:25;101614.22;;;20.50;100.00
36328;BME280;22354;50.012;8.264;2022-08-06T09:38:00;101611.59;;;20.92;100.00
36328;BME280;22354;50.012;8.264;2022-08-06T09:40:25;101622.56;;;20.19;100.00
36328;BME280;22354;50.012;8.264;2022-08-06T09:42:50;101618.44;;;20.23;100.00
36328;BME280;22354;50.012;8.264;2022-08-06T09:45:19;101620.75;;;19.82;100.00
36328;BME280;22354;50.012;8.264;2022-08-06T09:47:47;101612.03;;;19.86;100.00
36328;BME280;22354;50.012;8.264;2022-08-06T09:50:12;101623.31;;;20.72;100.00
36328;BME280;22354;50.012;8.264;2022-08-06T09:52:38;101614.59;;;20.83;100.00
36328;BME280;22354;50.012;8.264;2022-08-06T09:55:04;101614.75;;;21.32;100.00
36328;BME280;22354;50.012;8.264;2022-08-06T09:57:47;101610.81;;;21.20;100.00
36328;BME280;22354;50.012;8.264;2022-08-06T10:00:25;101617.13;;;20.48;100.00
36328;BME280;22354;50.012;8.264;2022-08-06T10:02:55;101616.94;;;20.35;100.00
36328;BME280;22354;50.012;8.264;2022-08-06T10:05:23;101623.44;;;20.49;100.00
36328;BME280;22354;50.012;8.264;2022-08-06T10:08:02;101617.69;;;20.58;100.00
36328;BME280;22354;50.012;8.264;2022-08-06T10:10:46;101617.38;;;20.68;100.00
36328;BME280;22354;50.012;8.264;2022-08-06T10:13:12;101611.34;;;20.87;100.00
36328;BME280;22354;50.012;8.264;2022-08-06T10:15:38;101609.06;;;21.27;100.00
36328;BME280;22354;50.012;8.264;2022-08-06T10:18:04;101601.13;;;21.32;100.00
36328;BME280;22354;50.012;8.264;2022-08-06T10:20:29;101609.69;;;20.72;100.00
36328;BME280;22354;50.012;8.264;2022-08-06T10:22:54;101616.00;;;20.57;100.00
36328;BME280;22354;50.012;8.264;2022-08-06T10:25:23;101615.47;;;20.83;100.00
36328;BME280;22354;50.012;8.264;2022-08-06T10:27:53;101605.88;;;20.87;100.00
36328;BME280;22354;50.012;8.264;2022-08-06T10:30:18;101606.63;;;20.81;100.00
36328;BME280;22354;50.012;8.264;2022-08-06T10:32:52;101612.78;;;20.69;100.00
36328;BME280;22354;50.012;8.264;2022-08-06T10:35:20;101606.81;;;20.80;100.00
36328;BME280;22354;50.012;8.264;2022-08-06T10:37:49;101609.78;;;20.64;100.00
36328;BME280;22354;50.012;8.264;2022-08-06T10:40:19;101598.28;;;20.83;100.00
36328;BME280;22354;50.012;8.264;2022-08-06T10:42:44;101607.63;;;20.95;100.00
36328;BME280;22354;50.012;8.264;2022-08-06T10:45:11;101591.88;;;21.55;100.00
36328;BME280;22354;50.012;8.264;2022-08-06T10:47:37;101585.34;;;21.77;100.00
36328;BME280;22354;50.012;8.264;2022-08-06T10:50:03;101592.25;;;21.09;100.00
36328;BME280;22354;50.012;8.264;2022-08-06T10:52:30;101590.94;;;21.41;100.00
36328;BME280;22354;50.012;8.264;2022-08-06T10:54:56;101588.25;;;21.47;100.00
36328;BME280;22354;50.012;8.264;2022-08-06T10:57:24;101595.63;;;21.26;100.00
36328;BME280;22354;50.012;8.264;2022-08-06T10:59:51;101591.91;;;21.12;100.00
36328;BME280;22354;50.012;8.264;2022-08-06T11:05:17;101585.84;;;20.95;100.00
36328;BME280;22354;50.012;8.264;2022-08-06T11:08:05;101588.75;;;20.94;100.00
36328;BME280;22354;50.012;8.264;2022-08-06T11:11:32;101592.84;;;21.04;100.00
36328;BME280;22354;50.012;8.264;2022-08-06T11:13:32;101592.75;;;20.76;100.00
36328;BME280;22354;50.012;8.264;2022-08-06T11:15:58;101584.34;;;20.71;100.00
36328;BME280;22354;50.012;8.264;2022-08-06T11:18:24;101576.59;;;21.11;100.00
36328;BME280;22354;50.012;8.264;2022-08-06T11:20:50;101569.88;;;21.56;100.00
36328;BME280;22354;50.012;8.264;2022-08-06T11:25:48;101561.63;;;22.05;100.00
36328;BME280;22354;50.012;8.264;2022-08-06T11:28:20;101570.06;;;21.55;100.00
36328;BME280;22354;50.012;8.264;2022-08-06T11:31:06;101557.03;;;21.78;100.00
36328;BME280;22354;50.012;8.264;2022-08-06T11:35:59;101557.50;;;22.23;100.00
36328;BME280;22354;50.012;8.264;2022-08-06T11:41:11;101550.22;;;23.04;100.00
36328;BME280;22354;50.012;8.264;2022-08-06T11:46:23;101546.13;;;24.19;100.00
36328;BME280;22354;50.012;8.264;2022-08-06T11:54:09;101538.22;;;23.91;100.00
36328;BME280;22354;50.012;8.264;2022-08-06T11:59:35;101549.19;;;22.99;100.00
36328;BME280;22354;50.012;8.264;2022-08-06T12:02:04;101544.81;;;22.50;100.00
36328;BME280;22354;50.012;8.264;2022-08-06T12:07:29;101533.84;;;23.64;100.00
36328;BME280;22354;50.012;8.264;2022-08-06T12:14:59;101529.84;;;23.73;100.00
36328;BME280;22354;50.012;8.264;2022-08-06T12:17:26;101514.53;;;24.30;100.00
36328;BME280;22354;50.012;8.264;2022-08-06T12:19:54;101511.78;;;25.74;92.85
36328;BME280;22354;50.012;8.264;2022-08-06T12:22:21;101509.53;;;24.58;96.78
36328;BME280;22354;50.012;8.264;2022-08-06T12:24:52;101507.97;;;25.07;97.39
36328;BME280;22354;50.012;8.264;2022-08-06T12:27:20;101513.31;;;24.57;100.00
36328;BME280;22354;50.012;8.264;2022-08-06T12:29:45;101517.56;;;24.53;100.00
36328;BME280;22354;50.012;8.264;2022-08-06T12:32:31;101505.09;;;24.64;94.38
36328;BME280;22354;50.012;8.264;2022-08-06T12:34:59;101504.63;;;24.35;94.86
36328;BME280;22354;50.012;8.264;2022-08-06T12:37:39;101508.03;;;24.94;94.71
36328;BME280;22354;50.012;8.264;2022-08-06T12:40:10;101502.19;;;24.84;96.94
36328;BME280;22354;50.012;8.264;2022-08-06T12:45:27;101496.34;;;24.42;93.24
36328;BME280;22354;50.012;8.264;2022-08-06T12:48:04;101486.00;;;25.14;88.30
36328;BME280;22354;50.012;8.264;2022-08-06T12:50:32;101484.06;;;24.83;88.11
36328;BME280;22354;50.012;8.264;2022-08-06T12:55:51;101483.41;;;26.35;83.89
36328;BME280;22354;50.012;8.264;2022-08-06T12:58:19;101482.91;;;25.72;86.64
36328;BME280;22354;50.012;8.264;2022-08-06T13:00:50;101475.44;;;26.75;79.37
36328;BME280;22354;50.012;8.264;2022-08-06T13:03:18;101476.44;;;25.41;81.08
36328;BME280;22354;50.012;8.264;2022-08-06T13:05:44;101474.56;;;25.60;81.10
36328;BME280;22354;50.012;8.264;2022-08-06T13:08:10;101478.97;;;24.17;86.34
36328;BME280;22354;50.012;8.264;2022-08-06T13:10:37;101475.72;;;23.88;84.78
36328;BME280;22354;50.012;8.264;2022-08-06T13:13:04;101478.66;;;23.87;88.91
36328;BME280;22354;50.012;8.264;2022-08-06T13:15:31;101470.75;;;24.17;88.06
36328;BME280;22354;50.012;8.264;2022-08-06T13:18:17;101484.59;;;23.57;96.05
36328;BME280;22354;50.012;8.264;2022-08-06T13:20:45;101478.75;;;22.94;91.56
36328;BME280;22354;50.012;8.264;2022-08-06T13:23:12;101475.41;;;23.05;86.91
36328;BME280;22354;50.012;8.264;2022-08-06T13:25:43;101461.16;;;23.94;84.15
36328;BME280;22354;50.012;8.264;2022-08-06T13:28:13;101459.59;;;23.47;81.41
36328;BME280;22354;50.012;8.264;2022-08-06T13:30:41;101461.47;;;23.40;87.45
36328;BME280;22354;50.012;8.264;2022-08-06T13:33:17;101455.94;;;23.86;84.48
36328;BME280;22354;50.012;8.264;2022-08-06T13:35:49;101459.34;;;23.75;86.03
36328;BME280;22354;50.012;8.264;2022-08-06T13:38:28;101456.88;;;23.27;87.67
36328;BME280;22354;50.012;8.264;2022-08-06T13:40:54;101448.91;;;23.06;82.43